createdAt,value
2023-04-18T00:01:28.975Z,100197.47
2023-04-18T00:04:34.228Z,100196.50
2023-04-18T00:07:36.888Z,100203.31
2023-04-18T00:10:39.298Z,100205.13
2023-04-18T00:13:41.931Z,100194.66
2023-04-18T00:16:44.483Z,100207.94
2023-04-18T00:19:47.216Z,100205.28
2023-04-18T00:22:49.894Z,100202.56
2023-04-18T00:25:52.450Z,100202.63
2023-04-18T00:28:55.356Z,100211.25
2023-04-18T00:31:58.101Z,100211.31
2023-04-18T00:35:00.638Z,100211.16
2023-04-18T00:38:03.286Z,100212.00
2023-04-18T00:41:05.759Z,100211.91
2023-04-18T00:44:08.447Z,100211.06
2023-04-18T00:47:11.110Z,100211.16
2023-04-18T00:50:13.553Z,100212.81
2023-04-18T00:53:17.035Z,100208.53
2023-04-18T00:56:20.448Z,100204.06
2023-04-18T00:59:23.005Z,100204.84
2023-04-18T01:02:26.435Z,100201.31
2023-04-18T01:05:29.086Z,100208.47
2023-04-18T01:08:32.988Z,100206.63
2023-04-18T01:11:36.360Z,100203.97
2023-04-18T01:14:42.851Z,100198.75
2023-04-18T01:17:45.688Z,100197.88
2023-04-18T01:20:52.087Z,100193.47
2023-04-18T01:23:56.074Z,100192.63
2023-04-18T01:26:58.888Z,100196.06
2023-04-18T01:30:02.384Z,100198.59
2023-04-18T01:33:05.965Z,100192.53
2023-04-18T01:36:08.750Z,100194.31
2023-04-18T01:39:11.249Z,100200.38
2023-04-18T01:42:13.736Z,100196.88
2023-04-18T01:45:16.624Z,100197.63
2023-04-18T01:48:19.252Z,100198.44
2023-04-18T01:51:21.784Z,100197.63
2023-04-18T01:54:24.334Z,100201.91
2023-04-18T01:57:28.969Z,100195.66
2023-04-18T02:00:31.494Z,100209.69
2023-04-18T02:03:34.179Z,100204.53
2023-04-18T02:06:37.039Z,100206.28
2023-04-18T02:09:39.636Z,100214.25
2023-04-18T02:12:42.171Z,100209.03
2023-04-18T02:15:46.170Z,100203.91
2023-04-18T02:18:52.959Z,100203.88
2023-04-18T02:21:55.613Z,100206.47
2023-04-18T02:24:58.089Z,100214.25
2023-04-18T02:28:03.337Z,100216.78
2023-04-18T02:31:07.444Z,100221.25
2023-04-18T02:34:10.919Z,100224.91
2023-04-18T02:37:13.403Z,100214.44
2023-04-18T02:40:16.089Z,100218.72
2023-04-18T02:43:18.576Z,100222.06
2023-04-18T02:46:21.404Z,100223.84
2023-04-18T02:49:24.912Z,100218.50
2023-04-18T02:52:28.256Z,100227.25
2023-04-18T02:55:30.709Z,100216.78
2023-04-18T02:58:36.473Z,100230.63
2023-04-18T03:02:06.535Z,100228.03
2023-04-18T03:05:10.746Z,100226.22
2023-04-18T03:08:14.345Z,100227.88
2023-04-18T03:11:17.427Z,100226.22
2023-04-18T03:14:20.632Z,100227.06
2023-04-18T03:17:29.633Z,100227.03
2023-04-18T03:20:33.281Z,100231.28
2023-04-18T03:23:35.950Z,100225.19
2023-04-18T03:26:40.312Z,100233.00
2023-04-18T03:29:43.674Z,100234.78
2023-04-18T03:32:49.163Z,100228.56
2023-04-18T03:35:51.783Z,100225.84
2023-04-18T03:38:55.010Z,100231.00
2023-04-18T03:41:57.695Z,100227.44
2023-04-18T03:45:00.364Z,100231.63
2023-04-18T03:48:03.645Z,100236.00
2023-04-18T03:51:10.901Z,100235.25
2023-04-18T03:54:15.803Z,100234.44
2023-04-18T03:57:18.526Z,100239.78
2023-04-18T04:00:21.315Z,100244.09
2023-04-18T04:03:34.338Z,100247.63
2023-04-18T04:06:37.313Z,100246.56
2023-04-18T04:09:39.953Z,100249.34
2023-04-18T04:12:42.617Z,100252.03
2023-04-18T04:15:45.731Z,100260.97
2023-04-18T04:18:48.561Z,100255.00
2023-04-18T04:21:51.449Z,100265.44
2023-04-18T04:24:57.878Z,100264.31
2023-04-18T04:28:08.387Z,100269.34
2023-04-18T04:31:22.413Z,100264.25
2023-04-18T04:34:26.009Z,100266.81
2023-04-18T04:37:28.570Z,100278.88
2023-04-18T04:40:43.540Z,100268.34
2023-04-18T04:43:48.382Z,100277.09
2023-04-18T04:46:54.597Z,100271.63
2023-04-18T04:50:01.396Z,100272.63
2023-04-18T04:53:04.669Z,100277.78
2023-04-18T04:56:07.425Z,100281.44
2023-04-18T04:59:10.249Z,100275.31
2023-04-18T05:02:16.884Z,100280.69
2023-04-18T05:05:19.820Z,100284.22
2023-04-18T05:08:22.514Z,100286.78
2023-04-18T05:11:25.117Z,100291.34
2023-04-18T05:14:27.856Z,100291.16
2023-04-18T05:17:30.552Z,100291.19
2023-04-18T05:20:33.202Z,100295.44
2023-04-18T05:23:37.334Z,100294.75
2023-04-18T05:26:40.335Z,100303.69
2023-04-18T05:29:43.320Z,100302.19
2023-04-18T05:32:45.957Z,100297.09
2023-04-18T05:35:48.835Z,100303.47
2023-04-18T05:38:51.769Z,100308.06
2023-04-18T05:41:54.311Z,100302.03
2023-04-18T05:44:57.046Z,100301.19
2023-04-18T05:47:59.784Z,100318.00
2023-04-18T05:51:02.440Z,100305.81
2023-04-18T05:54:04.995Z,100312.94
2023-04-18T05:57:07.565Z,100306.84
2023-04-18T06:00:12.010Z,100300.03
2023-04-18T06:03:17.592Z,100315.00
2023-04-18T06:06:20.802Z,100315.16
2023-04-18T06:09:23.739Z,100311.84
2023-04-18T06:12:26.386Z,100315.47
2023-04-18T06:15:29.200Z,100318.16
2023-04-18T06:18:31.619Z,100326.22
2023-04-18T06:21:34.192Z,100321.88
2023-04-18T06:24:37.506Z,100323.56
2023-04-18T06:27:40.303Z,100324.47
2023-04-18T06:30:42.783Z,100322.00
2023-04-18T06:33:45.250Z,100329.25
2023-04-18T06:36:47.776Z,100326.75
2023-04-18T06:39:50.436Z,100320.75
2023-04-18T06:42:53.134Z,100332.47
2023-04-18T06:45:56.902Z,100330.88
2023-04-18T06:48:59.833Z,100327.41
2023-04-18T06:52:02.561Z,100322.06
2023-04-18T06:55:05.899Z,100325.59
2023-04-18T06:58:10.199Z,100332.59
2023-04-18T07:01:12.678Z,100334.44
2023-04-18T07:04:15.892Z,100333.56
2023-04-18T07:07:18.768Z,100332.72
2023-04-18T07:10:21.775Z,100338.09
2023-04-18T07:13:24.375Z,100333.81
2023-04-18T07:16:26.851Z,100341.81
2023-04-18T07:19:29.316Z,100339.31
2023-04-18T07:22:31.926Z,100339.41
2023-04-18T07:25:34.459Z,100347.38
2023-04-18T07:28:37.366Z,100344.69
2023-04-18T07:31:40.256Z,100355.34
2023-04-18T07:34:44.055Z,100353.53
2023-04-18T07:37:46.616Z,100357.16
2023-04-18T07:40:56.908Z,100360.69
2023-04-18T07:44:00.521Z,100363.31
2023-04-18T07:47:03.704Z,100359.81
2023-04-18T07:50:06.735Z,100364.28
2023-04-18T07:53:09.323Z,100362.56
2023-04-18T07:56:15.558Z,100367.91
2023-04-18T07:59:18.641Z,100368.88
2023-04-18T08:02:22.078Z,100369.91
2023-04-18T08:05:25.209Z,100369.13
2023-04-18T08:08:28.027Z,100371.75
2023-04-18T08:11:30.710Z,100365.59
2023-04-18T08:14:33.115Z,100381.47
2023-04-18T08:17:36.309Z,100369.13
2023-04-18T08:20:38.879Z,100374.41
2023-04-18T08:23:41.652Z,100370.00
2023-04-18T08:26:44.136Z,100381.47
2023-04-18T08:29:46.612Z,100380.59
2023-04-18T08:32:49.836Z,100379.72
2023-04-18T08:35:53.052Z,100381.47
2023-04-18T08:38:56.677Z,100387.63
2023-04-18T08:42:00.622Z,100384.97
2023-04-18T08:45:05.822Z,100381.44
2023-04-18T08:48:13.342Z,100374.25
2023-04-18T08:51:15.808Z,100371.19
2023-04-18T08:54:19.295Z,100375.94
2023-04-18T08:57:23.878Z,100379.22
2023-04-18T09:00:27.601Z,100367.06
2023-04-18T09:03:42.609Z,100373.44
2023-04-18T09:06:55.315Z,100369.88
2023-04-18T09:09:57.933Z,100377.84
2023-04-18T09:13:03.456Z,100378.75
2023-04-18T09:16:06.823Z,100371.09
2023-04-18T09:19:14.144Z,100375.00
2023-04-18T09:22:17.968Z,100375.59
2023-04-18T09:25:53.539Z,100367.34
2023-04-18T09:28:56.093Z,100376.00
2023-04-18T09:32:02.519Z,100371.72
2023-04-18T09:35:05.626Z,100362.75
2023-04-18T09:38:08.412Z,100365.13
2023-04-18T09:41:11.721Z,100367.25
2023-04-18T09:44:17.307Z,100369.38
2023-04-18T09:47:23.653Z,100361.97
2023-04-18T09:50:26.364Z,100362.22
2023-04-18T09:53:29.540Z,100365.19
2023-04-18T09:56:32.676Z,100369.00
2023-04-18T10:00:08.707Z,100365.47
2023-04-18T10:03:12.616Z,100367.72
2023-04-18T10:06:16.781Z,100357.41
2023-04-18T10:09:19.682Z,100361.84
2023-04-18T10:12:22.449Z,100364.94
2023-04-18T10:15:26.736Z,100359.38
2023-04-18T10:18:29.861Z,100360.63
2023-04-18T10:21:32.740Z,100357.81
2023-04-18T10:24:48.420Z,100360.97
2023-04-18T10:27:58.617Z,100354.41
2023-04-18T10:31:06.005Z,100358.41
2023-04-18T10:34:08.646Z,100362.66
2023-04-18T10:37:13.071Z,100355.66
2023-04-18T10:40:15.855Z,100365.53
2023-04-18T10:43:18.396Z,100359.31
2023-04-18T10:46:31.715Z,100366.19
2023-04-18T10:49:39.500Z,100356.06
2023-04-18T10:52:42.899Z,100365.25
2023-04-18T10:55:45.909Z,100354.19
2023-04-18T10:58:54.295Z,100355.75
2023-04-18T11:02:20.006Z,100361.88
2023-04-18T11:05:25.835Z,100348.72
2023-04-18T11:08:28.483Z,100352.78
2023-04-18T11:11:31.657Z,100347.69
2023-04-18T11:14:45.170Z,100347.56
2023-04-18T11:18:09.337Z,100350.72
2023-04-18T11:21:12.534Z,100358.25
2023-04-18T11:24:25.874Z,100359.34
2023-04-18T11:27:30.040Z,100353.56
2023-04-18T11:30:39.249Z,100362.91
2023-04-18T11:33:42.051Z,100366.38
2023-04-18T11:36:44.484Z,100363.44
2023-04-18T11:39:47.089Z,100351.56
2023-04-18T11:42:49.769Z,100351.75
2023-04-18T11:45:56.329Z,100349.91
2023-04-18T11:48:58.970Z,100359.50
2023-04-18T11:52:04.110Z,100340.41
2023-04-18T11:55:24.050Z,100345.47
2023-04-18T11:58:36.548Z,100352.75
2023-04-18T12:01:39.151Z,100354.22
2023-04-18T12:04:57.756Z,100340.72
2023-04-18T12:08:10.232Z,100345.03
2023-04-18T12:11:12.666Z,100344.28
2023-04-18T12:14:24.027Z,100336.09
2023-04-18T12:32:52.354Z,100340.97
2023-04-18T12:36:08.755Z,100346.09
2023-04-18T12:39:12.671Z,100343.75
2023-04-18T12:42:47.601Z,100349.88
2023-04-18T12:46:30.415Z,100340.31
2023-04-18T12:54:58.695Z,100338.88
2023-04-18T12:58:22.648Z,100346.81
2023-04-18T13:02:43.839Z,100336.53
2023-04-18T13:30:48.993Z,100341.81
2023-04-18T13:33:51.832Z,100341.75
2023-04-18T13:36:54.341Z,100348.75
2023-04-18T13:39:57.748Z,100351.72
2023-04-18T13:43:02.223Z,100341.56
2023-04-18T13:46:05.273Z,100351.25
2023-04-18T13:49:07.982Z,100345.91
2023-04-18T13:52:10.740Z,100342.09
2023-04-18T13:55:13.200Z,100347.56
2023-04-18T13:58:16.983Z,100351.03
2023-04-18T14:01:22.277Z,100346.78
2023-04-18T14:04:25.147Z,100342.19
2023-04-18T14:07:28.657Z,100347.50
2023-04-18T14:10:34.651Z,100341.72
2023-04-18T14:13:37.290Z,100340.72
2023-04-18T14:16:40.239Z,100339.25
2023-04-18T14:19:43.009Z,100332.84
2023-04-18T14:22:53.225Z,100332.72
2023-04-18T14:25:56.784Z,100340.78
2023-04-18T14:28:59.302Z,100336.16
2023-04-18T14:32:02.031Z,100336.22
2023-04-18T14:35:08.102Z,100336.22
2023-04-18T14:38:12.028Z,100328.53
2023-04-18T14:41:14.883Z,100326.75
2023-04-18T14:44:17.551Z,100334.66
2023-04-18T14:47:20.242Z,100340.69
2023-04-18T14:50:24.071Z,100330.34
2023-04-18T14:53:27.231Z,100331.09
2023-04-18T14:56:33.266Z,100348.84
2023-04-18T14:59:36.911Z,100346.22
2023-04-18T15:02:42.605Z,100338.41
2023-04-18T15:05:50.873Z,100349.00
2023-04-18T15:08:53.882Z,100343.59
2023-04-18T15:11:58.263Z,100345.88
2023-04-18T15:15:01.159Z,100341.44
2023-04-18T15:18:04.338Z,100342.78
2023-04-18T15:21:06.849Z,100334.56
2023-04-18T15:24:09.308Z,100339.88
2023-04-18T15:27:11.940Z,100340.00
2023-04-18T15:30:14.770Z,100343.34
2023-04-18T15:33:19.126Z,100340.22
2023-04-18T15:36:21.975Z,100345.50
2023-04-18T15:39:24.690Z,100340.63
2023-04-18T15:42:28.212Z,100344.72
2023-04-18T15:45:31.073Z,100347.91
2023-04-18T15:53:16.341Z,100340.81
2023-04-18T16:07:12.936Z,100347.47
2023-04-18T16:10:15.952Z,100343.13
2023-04-18T16:13:58.181Z,100349.91
2023-04-18T16:32:12.079Z,100363.03
2023-04-18T17:33:36.000Z,100377.94
2023-04-18T17:36:41.011Z,100375.31
2023-04-18T17:39:46.873Z,100381.47
2023-04-18T17:42:50.450Z,100370.88
2023-04-18T17:45:58.144Z,100387.59
2023-04-18T17:49:00.801Z,100393.75
2023-04-18T17:52:03.928Z,100389.34
2023-04-18T17:55:07.304Z,100391.06
2023-04-18T17:58:10.029Z,100391.03
2023-04-18T18:01:16.187Z,100395.38
2023-04-18T18:04:19.977Z,100393.59
2023-04-18T18:07:22.966Z,100409.38
2023-04-18T18:10:25.839Z,100404.94
2023-04-18T18:13:29.520Z,100405.81
2023-04-18T18:16:32.615Z,100411.03
2023-04-18T18:19:37.027Z,100403.00
2023-04-18T18:22:41.067Z,100404.72
2023-04-18T18:25:44.072Z,100419.56
2023-04-18T18:28:47.179Z,100416.91
2023-04-18T18:31:52.132Z,100409.81
2023-04-18T18:34:55.673Z,100417.59
2023-04-18T18:37:58.497Z,100416.72
2023-04-18T18:41:03.623Z,100417.59
2023-04-18T18:44:08.121Z,100423.75
2023-04-18T18:47:10.891Z,100427.31
2023-04-18T18:50:13.731Z,100422.84
2023-04-18T18:53:19.289Z,100427.25
2023-04-18T18:56:22.194Z,100428.94
2023-04-18T18:59:24.754Z,100435.22
2023-04-18T19:02:28.249Z,100452.16
2023-04-18T19:05:30.991Z,100463.44
2023-04-18T19:08:35.475Z,100470.44
2023-04-18T19:11:38.189Z,100468.78
2023-04-18T19:14:42.351Z,100465.16
2023-04-18T19:17:45.093Z,100465.22
2023-04-18T19:20:47.916Z,100469.69
2023-04-18T19:23:51.021Z,100466.16
2023-04-18T19:26:53.873Z,100467.84
2023-04-18T19:29:56.278Z,100470.44
2023-04-18T19:33:01.310Z,100472.19
2023-04-18T19:36:04.752Z,100477.31
2023-04-18T19:39:09.132Z,100480.06
2023-04-18T19:42:11.924Z,100470.44
2023-04-18T19:45:15.306Z,100478.19
2023-04-18T19:48:18.780Z,100483.44
2023-04-18T19:51:22.242Z,100483.47
2023-04-18T19:54:25.740Z,100481.84
2023-04-18T19:57:29.935Z,100484.41
2023-04-18T20:00:34.414Z,100493.13
2023-04-18T20:03:37.426Z,100492.28
2023-04-18T20:06:41.191Z,100489.66
2023-04-18T20:09:44.611Z,100494.00
2023-04-18T20:12:49.820Z,100500.09
2023-04-18T20:15:53.446Z,100491.31
2023-04-18T20:18:56.718Z,100495.63
2023-04-18T20:21:59.577Z,100500.09
2023-04-18T20:25:02.346Z,100504.44
2023-04-18T20:28:08.086Z,100506.13
2023-04-18T20:31:12.695Z,100501.75
2023-04-18T20:34:16.104Z,100508.81
2023-04-18T20:37:24.679Z,100523.59
2023-04-18T20:40:28.421Z,100497.75
2023-04-18T20:43:31.428Z,100502.75
2023-04-18T20:46:34.664Z,100487.94
2023-04-18T20:49:38.332Z,100495.81
2023-04-18T20:52:43.684Z,100502.78
2023-04-18T20:55:48.108Z,100483.69
2023-04-18T20:58:53.369Z,100484.59
2023-04-18T21:01:56.252Z,100490.75
2023-04-18T21:04:59.974Z,100488.22
2023-04-18T21:08:02.664Z,100490.88
2023-04-18T21:11:09.180Z,100481.25
2023-04-18T21:14:12.842Z,100479.56
2023-04-18T21:17:17.902Z,100479.53
2023-04-18T21:20:20.630Z,100483.00
2023-04-18T21:23:23.909Z,100481.25
2023-04-18T21:26:27.003Z,100483.00
2023-04-18T21:29:30.406Z,100483.75
2023-04-18T21:32:33.301Z,100480.97
2023-04-18T21:35:35.970Z,100479.94
2023-04-18T21:38:38.689Z,100474.66
2023-04-18T21:41:41.855Z,100480.78
2023-04-18T21:44:44.671Z,100475.44
2023-04-18T21:47:47.492Z,100473.66
2023-04-18T21:50:56.939Z,100474.63
2023-04-18T21:53:59.891Z,100482.59
2023-04-18T21:57:02.903Z,100471.13
2023-04-18T22:00:08.411Z,100471.97
2023-04-18T22:03:12.761Z,100469.25
2023-04-18T22:06:15.786Z,100470.88
2023-04-18T22:09:19.575Z,100464.81
2023-04-18T22:12:22.399Z,100470.03
2023-04-18T22:15:27.174Z,100467.28
2023-04-18T22:18:33.898Z,100468.13
2023-04-18T22:21:36.723Z,100466.38
2023-04-18T22:24:39.579Z,100460.16
2023-04-18T22:27:43.292Z,100469.81
2023-04-18T22:30:46.125Z,100461.97
2023-04-18T22:33:48.917Z,100455.72
2023-04-18T22:36:51.501Z,100454.03
2023-04-18T22:39:54.676Z,100453.28
2023-04-18T22:42:57.547Z,100447.19
2023-04-18T22:46:00.602Z,100450.91
2023-04-18T22:49:06.932Z,100447.31
2023-04-18T22:52:10.082Z,100441.09
2023-04-18T22:55:14.799Z,100433.06
2023-04-18T22:58:21.886Z,100426.97
2023-04-18T23:01:25.391Z,100426.84
2023-04-18T23:04:32.888Z,100426.03
2023-04-18T23:07:37.620Z,100410.16
2023-04-18T23:10:41.337Z,100424.13
2023-04-18T23:13:45.646Z,100411.84
2023-04-18T23:16:48.922Z,100417.09
2023-04-18T23:19:51.553Z,100420.59
2023-04-18T23:22:55.561Z,100411.78
2023-04-18T23:25:59.675Z,100407.34
2023-04-18T23:29:02.337Z,100406.38
2023-04-18T23:32:05.405Z,100397.63
2023-04-18T23:35:08.132Z,100394.06
2023-04-18T23:38:11.070Z,100387.94
2023-04-18T23:41:13.942Z,100387.88
2023-04-18T23:44:16.739Z,100385.97
2023-04-18T23:47:19.366Z,100380.00
2023-04-18T23:50:21.848Z,100384.25
2023-04-18T23:53:25.225Z,100379.88
2023-04-18T23:56:28.809Z,100382.53
2023-04-18T23:59:32.779Z,100370.44
